Time;durP1;ratioP1;P1;durP2;ratioP2;P2;SDS_P1;SDS_P2;PMS_P1;PMS_P2;Temp;Humidity;BMP_temperature;BMP_pressure;BME280_temperature;BME280_humidity;BME280_pressure;Samples;Min_cycle;Max_cycle;Signal;HPM_P1;HPM_P2
2022/01/12 00:00:11;;;;;;;10.63;9.75;;;2.30;72.60;;;;;;5055153;28;20225;-55
2022/01/12 00:02:38;;;;;;;9.98;9.18;;;2.30;72.70;;;;;;5055131;28;20205;-54
2022/01/12 00:05:06;;;;;;;10.27;9.32;;;2.20;73.30;;;;;;5055314;28;20292;-58
2022/01/12 00:07:33;;;;;;;9.82;8.82;;;2.20;73.40;;;;;;5055055;28;20297;-53
2022/01/12 00:09:59;;;;;;;10.35;9.32;;;2.20;73.60;;;;;;5055062;28;20249;-55
2022/01/12 00:12:27;;;;;;;9.85;8.93;;;2.20;73.40;;;;;;5053637;28;20234;-55
2022/01/12 00:14:54;;;;;;;10.15;9.15;;;2.20;73.40;;;;;;5054973;28;20201;-54
2022/01/12 00:17:22;;;;;;;10.13;9.10;;;2.30;73.30;;;;;;5053862;28;20261;-54
2022/01/12 00:19:49;;;;;;;9.38;8.50;;;2.30;73.10;;;;;;5054932;28;20201;-54
2022/01/12 00:22:16;;;;;;;10.00;9.10;;;2.30;73.00;;;;;;5054803;28;20201;-54
2022/01/12 00:25:05;;;;;;;10.93;9.93;;;2.30;73.20;;;;;;5054894;28;20201;-55
2022/01/12 00:33:10;;;;;;;11.15;10.07;;;2.20;73.30;;;;;;5054809;28;20275;-55
2022/01/12 00:35:37;;;;;;;10.57;9.68;;;2.10;73.00;;;;;;5054597;28;20244;-58
2022/01/12 00:38:04;;;;;;;10.32;9.32;;;2.10;73.20;;;;;;5054392;28;20232;-53
2022/01/12 00:40:31;;;;;;;10.15;9.20;;;2.10;73.30;;;;;;5054544;28;20212;-54
2022/01/12 00:42:58;;;;;;;11.20;10.15;;;2.10;73.30;;;;;;5053380;28;20205;-54
2022/01/12 00:45:25;;;;;;;10.48;9.48;;;2.20;73.30;;;;;;5054529;28;20201;-55
2022/01/12 00:47:51;;;;;;;10.95;9.85;;;2.30;73.30;;;;;;5054526;28;20240;-54
2022/01/12 00:50:20;;;;;;;10.23;9.13;;;2.30;73.10;;;;;;5054217;28;20211;-54
2022/01/12 00:52:48;;;;;;;9.90;9.00;;;2.30;73.00;;;;;;5054323;28;20259;-54
2022/01/12 00:55:15;;;;;;;9.65;8.75;;;2.30;73.10;;;;;;5054267;28;20205;-55
2022/01/12 00:57:42;;;;;;;9.75;8.75;;;2.20;73.10;;;;;;5052950;28;20233;-58
2022/01/12 01:00:11;;;;;;;9.18;8.27;;;2.10;73.20;;;;;;5054293;28;20225;-58
2022/01/12 01:02:37;;;;;;;9.70;8.73;;;2.00;73.40;;;;;;5054075;28;20244;-56
2022/01/12 01:05:05;;;;;;;10.68;9.68;;;2.00;73.70;;;;;;5054074;28;20287;-55
2022/01/12 01:07:34;;;;;;;9.32;8.60;;;1.90;73.70;;;;;;5053939;28;20292;-57
2022/01/12 01:10:05;;;;;;;9.70;8.90;;;1.90;73.80;;;;;;5053946;28;20226;-55
2022/01/12 01:12:33;;;;;;;11.77;9.98;;;1.80;74.10;;;;;;5052499;28;20695;-56
2022/01/12 01:15:04;;;;;;;11.38;9.55;;;1.90;74.10;;;;;;5053944;28;20201;-55
2022/01/12 01:25:51;;;;;;;10.13;9.10;;;1.80;74.00;;;;;;5053571;28;20209;-57
2022/01/12 01:28:19;;;;;;;9.05;8.25;;;1.90;74.00;;;;;;5052174;28;20215;-57
2022/01/12 01:30:46;;;;;;;9.15;8.32;;;2.00;73.90;;;;;;5053619;28;20296;-56
2022/01/12 01:33:16;;;;;;;8.50;7.70;;;1.90;73.80;;;;;;5053614;28;20240;-55
2022/01/12 01:35:49;;;;;;;9.98;7.70;;;1.90;73.90;;;;;;5053542;28;20208;-55
2022/01/12 01:38:18;;;;;;;9.10;8.20;;;1.90;74.10;;;;;;5053092;28;20236;-56
2022/01/12 01:40:45;;;;;;;8.30;7.60;;;2.00;74.00;;;;;;5053523;28;20201;-54
2022/01/12 01:43:21;;;;;;;9.70;8.15;;;2.00;73.80;;;;;;5052063;28;20252;-55
2022/01/12 01:54:04;;;;;;;8.80;7.60;;;1.90;74.10;;;;;;5053112;28;20208;-58
2022/01/12 01:56:31;;;;;;;8.65;7.85;;;1.90;74.00;;;;;;5053130;28;20635;-58
2022/01/12 01:58:58;;;;;;;8.25;7.50;;;2.00;73.80;;;;;;5051812;28;20563;-55
2022/01/12 02:01:25;;;;;;;9.18;8.27;;;2.00;73.70;;;;;;5053095;28;20220;-55
2022/01/12 02:03:54;;;;;;;8.85;7.97;;;2.00;73.40;;;;;;5053053;28;20211;-56
2022/01/12 02:06:21;;;;;;;10.55;9.55;;;2.00;73.30;;;;;;5053060;28;20247;-55
2022/01/12 02:08:48;;;;;;;9.90;8.90;;;2.00;73.20;;;;;;5052935;28;20225;-58
2022/01/12 02:11:16;;;;;;;10.10;9.10;;;2.00;73.30;;;;;;5052907;28;20595;-55
2022/01/12 02:13:43;;;;;;;9.60;8.70;;;1.90;73.60;;;;;;5051476;28;20208;-55
2022/01/12 02:16:10;;;;;;;10.05;9.05;;;1.90;73.70;;;;;;5052949;28;20206;-58
2022/01/12 02:19:05;;;;;;;9.90;8.90;;;1.90;73.60;;;;;;5052772;28;20320;-55
2022/01/12 02:35:34;;;;;;;9.35;8.45;;;1.80;73.40;;;;;;5052871;28;20228;-57
2022/01/12 02:40:50;;;;;;;9.80;8.80;;;1.90;73.30;;;;;;5054026;28;20200;-57
2022/01/12 02:43:27;;;;;;;9.65;8.65;;;1.80;73.10;;;;;;5055560;28;20212;-60
2022/01/12 02:51:31;;;;;;;11.07;9.13;;;1.70;73.80;;;;;;5056604;28;20558;-57
2022/01/12 02:53:59;;;;;;;13.20;9.82;;;1.50;74.20;;;;;;5056452;28;20201;-59
2022/01/12 02:56:28;;;;;;;9.73;8.80;;;1.40;74.10;;;;;;5056448;28;20232;-58
2022/01/12 02:58:58;;;;;;;10.30;9.38;;;1.50;74.30;;;;;;5055139;28;20237;-59
2022/01/12 03:02:06;;;;;;;10.77;9.45;;;1.50;74.30;;;;;;5056523;28;20644;-59
2022/01/12 03:04:35;;;;;;;11.07;9.75;;;1.30;74.80;;;;;;5056417;28;20303;-57
2022/01/12 03:07:09;;;;;;;11.45;9.93;;;1.30;75.30;;;;;;5056171;28;20550;-59
2022/01/12 03:09:38;;;;;;;11.43;10.23;;;1.30;75.40;;;;;;5056418;28;20215;-58
2022/01/12 03:12:05;;;;;;;11.05;9.95;;;1.20;75.60;;;;;;5054700;28;20240;-59
2022/01/12 03:14:32;;;;;;;11.48;10.40;;;1.20;75.70;;;;;;5056192;28;20209;-57
2022/01/12 03:16:59;;;;;;;11.35;10.15;;;1.20;76.20;;;;;;5056214;28;20205;-57
2022/01/12 03:19:26;;;;;;;11.75;10.55;;;1.20;75.90;;;;;;5056203;28;20202;-60
2022/01/12 03:21:52;;;;;;;11.05;10.00;;;1.20;75.70;;;;;;5056148;28;20205;-60
2022/01/12 03:24:19;;;;;;;11.73;10.55;;;1.10;76.10;;;;;;5055902;28;20202;-57
2022/01/12 03:26:48;;;;;;;10.90;9.95;;;0.90;76.70;;;;;;5055915;28;20300;-59
2022/01/12 03:29:16;;;;;;;14.65;11.00;;;0.90;76.40;;;;;;5055325;28;20212;-58
2022/01/12 03:31:43;;;;;;;10.63;9.68;;;0.90;77.00;;;;;;5055939;28;20692;-58
2022/01/12 03:34:22;;;;;;;12.48;11.18;;;0.90;77.30;;;;;;5055855;28;20533;-58
2022/01/12 03:37:15;;;;;;;11.98;10.30;;;0.80;77.20;;;;;;5055788;28;20209;-56
2022/01/12 03:39:41;;;;;;;12.60;10.55;;;0.90;77.00;;;;;;5055610;28;20620;-59
2022/01/12 03:42:10;;;;;;;11.43;10.23;;;0.90;77.50;;;;;;5054664;28;20248;-58
2022/01/12 03:44:36;;;;;;;12.00;10.70;;;0.80;77.40;;;;;;5055689;28;20201;-58
2022/01/12 03:47:04;;;;;;;13.32;11.40;;;0.80;77.00;;;;;;5055595;28;20300;-56
2022/01/12 03:49:31;;;;;;;14.35;10.75;;;0.70;77.10;;;;;;5055556;28;20208;-58
2022/01/12 03:51:58;;;;;;;14.98;11.40;;;0.70;77.20;;;;;;5054281;28;20572;-59
2022/01/12 03:54:24;;;;;;;14.15;10.65;;;0.80;77.30;;;;;;5055201;28;20201;-59
2022/01/12 03:56:51;;;;;;;13.45;11.90;;;0.80;77.10;;;;;;5054485;28;20568;-59
2022/01/12 03:59:20;;;;;;;12.95;10.98;;;0.70;77.00;;;;;;5055390;28;20556;-59
2022/01/12 04:01:46;;;;;;;12.57;11.35;;;0.70;76.90;;;;;;5055354;28;20284;-58
2022/01/12 04:04:21;;;;;;;14.30;11.15;;;0.60;76.90;;;;;;5055285;28;20654;-59
2022/01/12 04:09:32;;;;;;;15.15;10.07;;;0.60;77.30;;;;;;5055086;28;20269;-58
2022/01/12 04:11:59;;;;;;;14.10;9.90;;;0.60;77.30;;;;;;5053646;28;20328;-59
2022/01/12 04:14:27;;;;;;;13.63;11.80;;;0.60;78.00;;;;;;5055072;28;20670;-60
2022/01/12 04:16:54;;;;;;;14.00;11.20;;;0.60;77.80;;;;;;5054889;28;20580;-60
2022/01/12 04:19:23;;;;;;;14.13;11.98;;;0.60;77.30;;;;;;5054868;28;20711;-58
2022/01/12 04:21:50;;;;;;;13.32;11.70;;;0.50;77.20;;;;;;5055042;28;20297;-59
2022/01/12 04:24:17;;;;;;;13.80;11.98;;;0.50;77.10;;;;;;5054754;28;20251;-59
2022/01/12 04:26:44;;;;;;;14.40;11.32;;;0.40;77.50;;;;;;5054815;28;20566;-60
2022/01/12 04:29:12;;;;;;;14.10;11.90;;;0.30;78.00;;;;;;5053443;28;20205;-60
2022/01/12 04:31:40;;;;;;;15.75;11.02;;;0.30;78.10;;;;;;5054672;28;20209;-59
2022/01/12 04:34:09;;;;;;;16.20;12.32;;;0.20;78.20;;;;;;5054707;28;20219;-59
2022/01/12 04:36:35;;;;;;;11.48;10.38;;;0.20;78.30;;;;;;5054723;28;20227;-60
2022/01/12 04:39:03;;;;;;;13.40;11.38;;;0.20;78.20;;;;;;5054401;28;20233;-59
2022/01/12 04:41:30;;;;;;;13.57;10.90;;;0.10;78.50;;;;;;5054460;28;20201;-59
2022/01/12 04:43:57;;;;;;;15.13;10.90;;;0.10;78.40;;;;;;5053091;28;20224;-58
2022/01/12 04:46:31;;;;;;;12.80;11.32;;;0.20;78.90;;;;;;5054616;28;20205;-58
2022/01/12 04:51:44;;;;;;;14.40;11.48;;;0.40;78.60;;;;;;5054402;28;20213;-59
2022/01/12 04:54:11;;;;;;;16.67;11.70;;;0.40;78.40;;;;;;5054210;28;20235;-59
2022/01/12 04:56:38;;;;;;;15.57;12.30;;;0.50;78.10;;;;;;5054138;28;20293;-58
2022/01/12 04:59:05;;;;;;;15.93;11.57;;;0.50;78.40;;;;;;5052721;28;20592;-59
2022/01/12 05:01:36;;;;;;;17.13;13.05;;;0.40;78.60;;;;;;5054319;28;20201;-59
2022/01/12 05:07:22;;;;;;;12.63;11.32;;;0.30;79.20;;;;;;5053964;28;20691;-57
2022/01/12 05:12:42;;;;;;;17.70;12.95;;;0.30;78.60;;;;;;5053933;28;20603;-57
2022/01/12 05:12:51;;;;;;;14.35;10.88;;;0.10;78.60;;;;;;5052527;28;20229;-59
2022/01/12 05:15:26;;;;;;;18.08;13.60;;;0.10;78.60;;;;;;5053907;28;20561;-59
2022/01/12 05:17:53;;;;;;;18.50;13.57;;;0.10;79.10;;;;;;5053877;28;20228;-59
2022/01/12 05:20:22;;;;;;;15.63;12.25;;;0.10;79.10;;;;;;5053754;28;20217;-58
2022/01/12 05:22:49;;;;;;;15.23;12.35;;;0.00;79.30;;;;;;5053650;28;20209;-56
2022/01/12 05:25:18;;;;;;;17.75;13.05;;;0.00;79.20;;;;;;5053606;28;20205;-59
2022/01/12 05:27:45;;;;;;;14.50;11.75;;;0.00;79.70;;;;;;5052178;28;20686;-59
2022/01/12 05:30:13;;;;;;;17.20;12.60;;;0.00;79.80;;;;;;5053739;28;20201;-59
2022/01/12 05:32:40;;;;;;;15.18;12.60;;;0.00;80.20;;;;;;5053580;28;20221;-59
2022/01/12 05:35:10;;;;;;;17.15;12.18;;;0.00;80.20;;;;;;5053651;28;20209;-60
2022/01/12 05:37:39;;;;;;;19.02;13.65;;;-0.20;80.10;;;;;;5053167;28;20205;-60
2022/01/12 05:40:08;;;;;;;17.45;13.07;;;-0.20;80.20;;;;;;5053440;28;20575;-59
2022/01/12 05:42:35;;;;;;;17.95;14.57;;;-0.30;80.40;;;;;;5052012;28;20197;-59
2022/01/12 05:45:02;;;;;;;21.35;13.93;;;-0.30;80.50;;;;;;5053292;28;20209;-59
2022/01/12 05:49:33;;;;;;;17.85;11.85;;;-0.30;80.60;;;;;;5053218;28;20244;-56
2022/01/12 05:50:27;;;;;;;22.10;14.43;;;-0.30;80.50;;;;;;5053071;28;20208;-55
2022/01/12 05:52:56;;;;;;;16.77;12.77;;;-0.40;81.10;;;;;;5053012;28;20202;-59
2022/01/12 05:55:23;;;;;;;17.35;13.27;;;-0.50;81.50;;;;;;5053160;28;20212;-59
2022/01/12 05:57:50;;;;;;;19.63;13.27;;;-0.60;81.70;;;;;;5051913;28;20227;-58
2022/01/12 06:00:19;;;;;;;19.27;13.77;;;-0.60;81.80;;;;;;5053020;28;20567;-59
2022/01/12 06:02:46;;;;;;;17.95;14.23;;;-0.60;82.00;;;;;;5053132;28;20208;-59
2022/01/12 06:05:14;;;;;;;23.25;14.80;;;-0.70;82.40;;;;;;5052932;28;20197;-58
2022/01/12 06:07:41;;;;;;;22.45;14.77;;;-0.70;82.40;;;;;;5052791;28;20271;-59
2022/01/12 06:10:10;;;;;;;20.33;13.45;;;-0.60;82.20;;;;;;5052962;28;20205;-59
2022/01/12 06:12:38;;;;;;;21.23;14.25;;;-0.60;82.00;;;;;;5051490;28;20229;-59
2022/01/12 06:15:06;;;;;;;19.80;15.18;;;-0.60;82.00;;;;;;5052003;28;20201;-59
2022/01/12 06:17:33;;;;;;;21.90;14.45;;;-0.50;82.10;;;;;;5052747;28;20211;-58
2022/01/12 06:20:01;;;;;;;21.80;14.15;;;-0.40;82.00;;;;;;5052575;28;20223;-57
2022/01/12 06:22:28;;;;;;;21.90;14.75;;;-0.30;81.90;;;;;;5052787;28;20201;-58
2022/01/12 06:24:57;;;;;;;19.33;14.02;;;-0.30;81.40;;;;;;5052703;28;20300;-59
2022/01/12 06:27:28;;;;;;;22.77;15.77;;;-0.20;81.60;;;;;;5051533;28;20726;-59
2022/01/12 06:30:04;;;;;;;22.67;14.48;;;-0.20;81.30;;;;;;5052719;28;20201;-60
2022/01/12 06:32:32;;;;;;;23.38;15.52;;;-0.10;81.20;;;;;;5052493;28;20236;-58
2022/01/12 06:34:59;;;;;;;21.52;14.88;;;0.00;80.60;;;;;;5052662;28;20223;-59
2022/01/12 06:37:26;;;;;;;22.52;14.20;;;0.10;80.10;;;;;;5052673;28;20201;-59
2022/01/12 06:39:53;;;;;;;18.67;13.82;;;0.20;80.00;;;;;;5052396;28;20240;-59
2022/01/12 06:42:19;;;;;;;22.05;14.75;;;0.10;80.10;;;;;;5051317;28;20567;-59
2022/01/12 06:44:49;;;;;;;22.33;14.35;;;-0.10;79.90;;;;;;5052662;28;20212;-60
2022/01/12 06:47:15;;;;;;;21.27;14.80;;;-0.40;81.00;;;;;;5052543;28;20197;-59
2022/01/12 06:49:42;;;;;;;20.63;13.73;;;-0.50;81.90;;;;;;5052564;28;20288;-59
2022/01/12 06:52:09;;;;;;;22.00;14.43;;;-0.60;82.50;;;;;;5052546;28;20252;-59
2022/01/12 06:54:36;;;;;;;21.13;15.45;;;-0.60;81.90;;;;;;5052373;28;20252;-59
2022/01/12 06:57:04;;;;;;;21.58;15.25;;;-0.70;81.80;;;;;;5051101;28;20293;-59
2022/01/12 06:59:30;;;;;;;23.13;14.52;;;-0.80;82.00;;;;;;5052213;28;20755;-59
2022/01/12 07:01:59;;;;;;;20.98;15.40;;;-0.80;82.10;;;;;;5052286;28;20296;-60
2022/01/12 07:04:26;;;;;;;21.33;15.82;;;-0.80;82.20;;;;;;5052349;28;20201;-57
2022/01/12 07:06:53;;;;;;;18.75;13.65;;;-0.80;82.20;;;;;;5052179;28;20624;-60
2022/01/12 07:09:20;;;;;;;24.40;13.65;;;-0.70;82.20;;;;;;5052159;28;20216;-59
2022/01/12 07:11:48;;;;;;;23.60;14.75;;;-0.80;82.30;;;;;;5052214;28;20225;-58
2022/01/12 07:14:15;;;;;;;23.92;15.48;;;-0.80;82.00;;;;;;5051297;28;20197;-60
2022/01/12 07:16:42;;;;;;;23.38;15.95;;;-0.80;82.10;;;;;;5052232;28;20201;-59
2022/01/12 07:19:10;;;;;;;22.40;15.38;;;-0.80;82.10;;;;;;5051962;28;20233;-59
2022/01/12 07:21:37;;;;;;;22.20;15.27;;;-0.80;82.30;;;;;;5051992;28;20722;-59
2022/01/12 07:24:05;;;;;;;24.00;15.45;;;-0.80;82.40;;;;;;5052086;28;20584;-59
2022/01/12 07:26:32;;;;;;;29.75;16.90;;;-0.80;82.30;;;;;;5052809;28;20295;-57
2022/01/12 07:28:59;;;;;;;27.77;16.38;;;-0.90;82.00;;;;;;5054630;28;20545;-56
2022/01/12 07:31:25;;;;;;;28.60;16.48;;;-1.00;82.10;;;;;;5055708;28;20237;-59
2022/01/12 07:33:54;;;;;;;25.55;15.90;;;-1.00;82.20;;;;;;5055858;28;20205;-59
2022/01/12 07:36:22;;;;;;;29.98;16.85;;;-1.00;82.20;;;;;;5055935;28;20206;-59
2022/01/12 07:38:53;;;;;;;25.92;15.95;;;-1.00;82.20;;;;;;5055388;28;20248;-59
2022/01/12 07:41:20;;;;;;;23.50;15.27;;;-1.00;82.00;;;;;;5055628;28;20237;-58
2022/01/12 07:43:47;;;;;;;32.45;17.30;;;-1.10;82.30;;;;;;5051822;28;20573;-56
2022/01/12 07:46:14;;;;;;;30.95;17.10;;;-1.20;82.80;;;;;;5044213;28;20689;-58
2022/01/12 07:48:41;;;;;;;30.23;15.98;;;-1.20;83.00;;;;;;5035631;28;20264;-59
2022/01/12 07:51:09;;;;;;;27.45;17.05;;;-1.20;83.20;;;;;;5035590;28;20209;-58
2022/01/12 07:53:37;;;;;;;26.23;15.55;;;-1.20;83.40;;;;;;5035337;28;20202;-60
2022/01/12 07:56:05;;;;;;;27.75;16.40;;;-1.20;83.50;;;;;;5043399;28;20644;-58
2022/01/12 07:58:32;;;;;;;28.55;17.48;;;-1.10;83.50;;;;;;5054095;28;20225;-58
2022/01/12 08:00:59;;;;;;;26.33;16.58;;;-1.00;83.40;;;;;;5055284;28;20210;-57
2022/01/12 08:03:26;;;;;;;30.88;16.60;;;-1.00;83.20;;;;;;5055272;28;20212;-59
2022/01/12 08:05:53;;;;;;;31.27;17.20;;;-1.00;83.20;;;;;;5055135;28;20312;-58
2022/01/12 08:08:20;;;;;;;28.15;16.92;;;-1.00;83.40;;;;;;5054852;28;20289;-58
2022/01/12 08:10:48;;;;;;;22.20;14.35;;;-1.00;83.70;;;;;;5055131;28;20257;-59
2022/01/12 08:13:15;;;;;;;25.38;14.57;;;-1.00;84.20;;;;;;5053976;28;20208;-59
2022/01/12 08:15:42;;;;;;;25.08;14.85;;;-0.80;84.50;;;;;;5055083;28;20204;-57
2022/01/12 08:18:09;;;;;;;32.03;18.33;;;-0.60;84.30;;;;;;5055019;28;20208;-58
2022/01/12 08:20:36;;;;;;;29.25;18.60;;;-0.70;83.90;;;;;;5054784;28;20239;-59
2022/01/12 08:23:03;;;;;;;25.85;16.55;;;-0.90;84.00;;;;;;5054584;28;20259;-59
2022/01/12 08:25:29;;;;;;;26.40;15.93;;;-1.00;85.10;;;;;;5054900;28;20217;-59
2022/01/12 08:27:58;;;;;;;25.38;16.85;;;-1.00;84.80;;;;;;5053574;28;20202;-58
2022/01/12 08:30:29;;;;;;;24.67;15.57;;;-1.00;85.10;;;;;;5054774;28;20635;-59
2022/01/12 08:32:56;;;;;;;22.15;15.07;;;-0.80;84.40;;;;;;5054700;28;20267;-58
2022/01/12 08:35:23;;;;;;;24.13;16.75;;;-0.60;83.80;;;;;;5054599;28;20635;-59
2022/01/12 08:37:50;;;;;;;23.02;15.57;;;-0.60;83.40;;;;;;5054068;28;20208;-59
2022/01/12 08:40:18;;;;;;;24.63;15.63;;;-0.40;83.30;;;;;;5054043;28;20229;-59
2022/01/12 08:42:46;;;;;;;23.00;15.00;;;-0.30;82.90;;;;;;5053109;28;20206;-59
2022/01/12 08:45:15;;;;;;;23.35;15.35;;;-0.20;82.10;;;;;;5054531;28;20229;-59
2022/01/12 08:47:42;;;;;;;23.50;15.07;;;-0.20;82.00;;;;;;5054394;28;20208;-59
2022/01/12 08:50:10;;;;;;;21.67;14.00;;;-0.20;82.00;;;;;;5054300;28;20578;-60
2022/01/12 08:52:37;;;;;;;22.95;15.65;;;0.00;82.50;;;;;;5054325;28;20205;-59
2022/01/12 08:55:05;;;;;;;24.20;16.13;;;0.20;81.80;;;;;;5054090;28;20209;-60
2022/01/12 08:57:32;;;;;;;20.17;14.48;;;0.40;81.80;;;;;;5052933;28;20217;-60
2022/01/12 09:00:00;;;;;;;21.13;13.00;;;0.30;80.30;;;;;;5054050;28;20324;-60
2022/01/12 09:02:29;;;;;;;23.52;15.70;;;0.10;79.90;;;;;;5054095;28;20212;-59
2022/01/12 09:04:55;;;;;;;20.52;14.52;;;-0.20;80.20;;;;;;5053940;28;20264;-57
2022/01/12 09:07:22;;;;;;;23.40;15.90;;;-0.20;80.60;;;;;;5054160;28;20199;-59
2022/01/12 09:09:49;;;;;;;22.83;14.18;;;-0.20;80.50;;;;;;5053888;28;20205;-60
2022/01/12 09:12:16;;;;;;;18.83;14.85;;;0.00;81.50;;;;;;5052633;28;20243;-58
2022/01/12 09:14:43;;;;;;;20.95;15.25;;;0.10;80.40;;;;;;5053670;28;20212;-59
2022/01/12 09:17:16;;;;;;;19.90;14.68;;;0.20;80.00;;;;;;5053913;28;20315;-59
2022/01/12 09:19:44;;;;;;;19.83;14.15;;;0.40;80.50;;;;;;5053845;28;20259;-59
2022/01/12 09:22:11;;;;;;;21.63;13.40;;;0.30;79.00;;;;;;5053909;28;20209;-60
2022/01/12 09:24:38;;;;;;;19.40;14.20;;;0.30;79.60;;;;;;5053696;28;20212;-60
2022/01/12 09:27:06;;;;;;;22.02;15.50;;;0.30;79.50;;;;;;5052285;28;20296;-59
2022/01/12 09:29:32;;;;;;;20.80;14.63;;;0.30;78.90;;;;;;5053610;28;20205;-60
2022/01/12 09:31:59;;;;;;;20.75;15.48;;;0.30;79.50;;;;;;5053579;28;20281;-60
2022/01/12 09:34:26;;;;;;;21.80;15.75;;;0.30;79.70;;;;;;5053920;28;20208;-58
2022/01/12 09:36:54;;;;;;;18.73;14.75;;;0.40;79.20;;;;;;5053476;28;20287;-58
2022/01/12 09:39:21;;;;;;;18.38;15.38;;;0.40;78.90;;;;;;5053282;28;20316;-59
2022/01/12 09:41:48;;;;;;;23.00;15.48;;;0.40;78.70;;;;;;5053517;28;20205;-59
2022/01/12 09:44:16;;;;;;;21.73;15.60;;;0.40;78.70;;;;;;5052603;28;20204;-59
2022/01/12 09:46:43;;;;;;;22.45;14.15;;;0.30;79.20;;;;;;5053348;28;20235;-60
2022/01/12 09:49:10;;;;;;;20.85;14.40;;;0.20;79.60;;;;;;5053312;28;20197;-58
2022/01/12 09:51:37;;;;;;;22.85;15.65;;;0.30;79.40;;;;;;5053362;28;20225;-60
2022/01/12 09:54:05;;;;;;;21.55;15.95;;;0.40;79.90;;;;;;5053059;28;20198;-58
2022/01/12 09:56:32;;;;;;;20.27;14.75;;;0.60;78.50;;;;;;5053156;28;20715;-58
2022/01/12 09:59:01;;;;;;;22.35;15.13;;;0.60;77.80;;;;;;5051846;28;20212;-60
2022/01/12 10:01:29;;;;;;;17.95;13.75;;;0.70;77.70;;;;;;5052933;28;20227;-59
2022/01/12 10:04:07;;;;;;;18.30;15.10;;;0.90;78.00;;;;;;5053043;28;20224;-59
2022/01/12 10:06:37;;;;;;;19.98;15.18;;;0.90;78.00;;;;;;5053056;28;20615;-60
2022/01/12 10:09:05;;;;;;;18.48;13.98;;;0.90;78.40;;;;;;5052741;28;20296;-59
2022/01/12 10:11:32;;;;;;;20.20;15.38;;;1.00;77.70;;;;;;5052823;28;20233;-60
2022/01/12 10:14:01;;;;;;;21.10;13.80;;;1.20;78.50;;;;;;5051621;28;20201;-60
2022/01/12 10:16:28;;;;;;;17.77;15.07;;;1.50;78.50;;;;;;5052988;28;20605;-60
2022/01/12 10:18:58;;;;;;;19.02;13.52;;;1.70;77.80;;;;;;5052683;28;20215;-60
2022/01/12 10:21:33;;;;;;;20.48;13.80;;;1.80;76.40;;;;;;5052755;28;20197;-60
2022/01/12 10:24:02;;;;;;;17.48;14.82;;;1.90;75.60;;;;;;5052572;28;20288;-61
2022/01/12 10:26:37;;;;;;;20.70;12.90;;;1.90;74.90;;;;;;5052732;28;20233;-60
2022/01/12 10:29:11;;;;;;;18.25;14.57;;;2.10;75.80;;;;;;5051553;28;20209;-59
2022/01/12 10:31:49;;;;;;;18.17;13.77;;;2.20;75.70;;;;;;5052641;28;20569;-60
2022/01/12 10:34:16;;;;;;;18.85;13.43;;;2.20;74.50;;;;;;5052528;28;20568;-59
2022/01/12 10:36:45;;;;;;;19.27;14.65;;;2.30;74.80;;;;;;5052683;28;20201;-60
2022/01/12 10:39:13;;;;;;;17.70;13.77;;;2.40;74.70;;;;;;5052420;28;20212;-61
2022/01/12 10:41:54;;;;;;;22.02;15.30;;;2.60;74.30;;;;;;5052748;28;20207;-60
2022/01/12 10:44:23;;;;;;;18.77;15.00;;;2.70;73.10;;;;;;5052598;28;20201;-60
2022/01/12 10:46:50;;;;;;;18.05;14.23;;;2.80;73.30;;;;;;5052577;28;20561;-60
2022/01/12 10:49:21;;;;;;;23.52;14.88;;;2.90;73.10;;;;;;5052490;28;20292;-58
2022/01/12 10:51:58;;;;;;;20.90;15.60;;;3.00;72.80;;;;;;5052524;28;20210;-59
2022/01/12 10:54:25;;;;;;;20.30;16.75;;;3.00;73.00;;;;;;5052537;28;20293;-60
2022/01/12 10:56:53;;;;;;;18.38;14.80;;;3.10;72.30;;;;;;5052118;28;20217;-56
2022/01/12 10:59:22;;;;;;;17.17;13.65;;;3.10;71.90;;;;;;5052325;28;20207;-60
2022/01/12 11:01:49;;;;;;;18.33;13.70;;;3.20;72.30;;;;;;5053743;28;20197;-60
2022/01/12 11:04:16;;;;;;;19.38;14.48;;;3.30;72.60;;;;;;5056425;28;20688;-60
2022/01/12 11:06:43;;;;;;;18.25;14.48;;;3.40;70.80;;;;;;5056364;28;20240;-60
2022/01/12 11:09:09;;;;;;;17.88;13.00;;;3.30;70.60;;;;;;5056107;28;20293;-60
2022/01/12 11:11:36;;;;;;;15.93;13.93;;;3.40;70.30;;;;;;5056113;28;20240;-60
2022/01/12 11:14:05;;;;;;;18.15;15.07;;;3.40;71.90;;;;;;5055003;28;20596;-59
2022/01/12 11:16:32;;;;;;;21.67;16.60;;;3.50;70.30;;;;;;5056234;28;20225;-60
2022/01/12 11:19:00;;;;;;;18.33;14.68;;;3.40;70.70;;;;;;5056218;28;20265;-59
2022/01/12 11:21:35;;;;;;;14.70;13.18;;;4.30;72.90;;;;;;5055971;28;20235;-60
2022/01/12 11:24:05;;;;;;;16.85;15.00;;;5.90;66.10;;;;;;5055919;28;20204;-60
2022/01/12 11:26:33;;;;;;;17.83;14.20;;;7.50;64.20;;;;;;5055894;28;20213;-60
2022/01/12 11:29:00;;;;;;;14.60;11.85;;;9.40;64.70;;;;;;5054660;28;20718;-60
2022/01/12 11:31:31;;;;;;;16.75;14.70;;;11.30;59.30;;;;;;5055706;28;20245;-60
2022/01/12 11:33:58;;;;;;;15.63;14.02;;;13.00;56.50;;;;;;5055800;28;20625;-56
2022/01/12 11:36:28;;;;;;;16.25;14.65;;;14.30;48.40;;;;;;5055798;28;20209;-59
2022/01/12 11:39:05;;;;;;;16.23;14.75;;;15.00;49.10;;;;;;5055643;28;20205;-58
2022/01/12 11:41:33;;;;;;;14.93;12.93;;;15.90;49.80;;;;;;5055895;28;20228;-59
2022/01/12 11:44:05;;;;;;;16.85;15.18;;;16.90;47.60;;;;;;5054328;28;20300;-58
2022/01/12 11:46:45;;;;;;;16.73;15.15;;;17.70;46.90;;;;;;5055449;28;20678;-58
2022/01/12 11:49:12;;;;;;;16.08;14.48;;;18.50;46.30;;;;;;5055840;28;20203;-58
2022/01/12 11:51:42;;;;;;;16.97;15.33;;;19.10;45.10;;;;;;5055409;28;20660;-57
2022/01/12 11:54:11;;;;;;;17.53;15.97;;;19.50;43.50;;;;;;5055292;28;20452;-57
2022/01/12 11:56:50;;;;;;;16.70;15.20;;;19.90;37.00;;;;;;5055428;28;20456;-57
2022/01/12 11:59:17;;;;;;;17.10;15.40;;;19.80;37.50;;;;;;5054628;28;20447;-57
2022/01/12 12:01:48;;;;;;;16.77;15.37;;;19.10;38.90;;;;;;5055220;28;20579;-58
2022/01/12 12:04:24;;;;;;;16.20;14.90;;;19.30;35.30;;;;;;5055158;28;20468;-60
2022/01/12 12:07:03;;;;;;;15.80;14.30;;;18.30;38.00;;;;;;5055305;28;20950;-58
2022/01/12 12:09:37;;;;;;;13.13;11.97;;;18.70;39.20;;;;;;5054982;28;20454;-59
2022/01/12 12:12:11;;;;;;;13.90;12.67;;;19.60;41.80;;;;;;5053665;28;20812;-60
2022/01/12 12:14:38;;;;;;;15.27;14.00;;;20.20;38.20;;;;;;5053713;28;20494;-60
2022/01/12 12:17:07;;;;;;;14.73;13.63;;;20.70;37.50;;;;;;5055154;28;20462;-59
2022/01/12 12:19:37;;;;;;;16.67;15.17;;;21.30;39.60;;;;;;5054893;28;20449;-60
2022/01/12 12:22:09;;;;;;;16.13;14.90;;;21.10;31.20;;;;;;5055027;28;20475;-60
2022/01/12 12:24:36;;;;;;;14.70;13.50;;;21.00;34.20;;;;;;5054848;28;20448;-57
2022/01/12 12:27:05;;;;;;;16.87;15.43;;;21.50;36.90;;;;;;5053489;28;20833;-60
2022/01/12 12:29:32;;;;;;;15.00;13.80;;;22.00;35.70;;;;;;5054946;28;20448;-57
2022/01/12 12:32:00;;;;;;;19.30;17.50;;;22.50;34.50;;;;;;5054790;28;20444;-59
2022/01/12 12:34:31;;;;;;;21.23;17.37;;;20.00;30.90;;;;;;5054853;28;20546;-60
2022/01/12 12:37:04;;;;;;;18.40;16.70;;;19.10;30.90;;;;;;5054624;28;20452;-59
2022/01/12 12:39:33;;;;;;;18.00;16.30;;;18.40;35.50;;;;;;5054496;28;20458;-59
2022/01/12 12:42:01;;;;;;;20.30;18.40;;;18.40;37.00;;;;;;5053180;28;21018;-59
2022/01/12 12:44:30;;;;;;;20.97;19.13;;;17.10;32.20;;;;;;5054641;28;20479;-60
2022/01/12 12:47:08;;;;;;;17.60;16.07;;;14.90;35.50;;;;;;5054723;28;20462;-60
2022/01/12 12:49:45;;;;;;;20.37;18.20;;;14.00;39.90;;;;;;5054373;28;20884;-59
2022/01/12 12:52:12;;;;;;;18.75;16.75;;;12.40;39.60;;;;;;5054278;28;20984;-58
2022/01/12 12:54:41;;;;;;;19.75;17.80;;;10.70;43.20;;;;;;5054249;28;20205;-57
2022/01/12 12:57:10;;;;;;;23.77;19.48;;;10.30;45.00;;;;;;5052927;28;20557;-58
2022/01/12 12:59:37;;;;;;;17.75;15.98;;;10.40;45.80;;;;;;5054151;28;20205;-59
2022/01/12 13:02:11;;;;;;;19.58;17.60;;;10.30;47.60;;;;;;5054177;28;20726;-59
2022/01/12 13:04:40;;;;;;;18.85;17.00;;;10.70;46.20;;;;;;5054017;28;20688;-58
2022/01/12 13:07:19;;;;;;;19.75;17.65;;;9.00;46.60;;;;;;5054089;28;20201;-58
2022/01/12 13:09:46;;;;;;;18.50;16.60;;;8.90;49.50;;;;;;5053996;28;20213;-56
2022/01/12 13:12:13;;;;;;;19.58;17.17;;;8.80;48.30;;;;;;5052676;28;20618;-56
2022/01/12 13:14:45;;;;;;;18.63;16.67;;;7.70;50.20;;;;;;5053879;28;20621;-60
2022/01/12 13:17:12;;;;;;;19.00;17.15;;;7.30;53.10;;;;;;5053853;28;20201;-59
2022/01/12 13:22:27;;;;;;;18.30;16.30;;;8.20;53.40;;;;;;5053839;28;20212;-58
2022/01/12 13:24:54;;;;;;;18.45;16.55;;;9.20;50.50;;;;;;5053329;28;20296;-59
2022/01/12 13:27:23;;;;;;;20.65;17.00;;;9.60;48.60;;;;;;5052328;28;20209;-59
2022/01/12 13:29:52;;;;;;;20.25;14.10;;;9.70;48.60;;;;;;5053555;28;20209;-57
2022/01/12 13:32:19;;;;;;;18.90;16.35;;;10.00;49.00;;;;;;5053515;28;20229;-58
2022/01/12 13:34:57;;;;;;;23.23;18.08;;;10.30;48.10;;;;;;5053520;28;20205;-59
2022/01/12 13:37:24;;;;;;;21.02;17.50;;;10.70;47.20;;;;;;5053613;28;20205;-59
2022/01/12 13:40:04;;;;;;;17.05;14.77;;;10.30;46.60;;;;;;5053228;28;20212;-59